Time;durP1;ratioP1;P1;durP2;ratioP2;P2;SDS_P1;SDS_P2;PMS_P1;PMS_P2;Temp;Humidity;BMP_temperature;BMP_pressure;BME280_temperature;BME280_humidity;BME280_pressure;Samples;Min_cycle;Max_cycle;Signal;HPM_P1;HPM_P2
2023/02/05 00:01:48;;;;;;;4.82;1.20;;;;;;;;;;5071147;28;20056;-65
2023/02/05 00:04:18;;;;;;;3.50;1.13;;;;;;;;;;5038424;28;20052;-66
2023/02/05 00:06:50;;;;;;;3.17;1.20;;;;;;;;;;5055018;28;20072;-66
2023/02/05 00:09:20;;;;;;;7.93;1.48;;;;;;;;;;5085003;28;20052;-66
2023/02/05 00:11:50;;;;;;;3.53;1.42;;;;;;;;;;5091060;28;20088;-66
2023/02/05 00:14:20;;;;;;;9.73;2.50;;;;;;;;;;5091008;28;20511;-66
2023/02/05 00:16:51;;;;;;;6.95;2.25;;;;;;;;;;5057130;28;20056;-66
2023/02/05 00:19:21;;;;;;;5.22;1.95;;;;;;;;;;5070365;28;20049;-66
2023/02/05 00:21:51;;;;;;;3.67;1.70;;;;;;;;;;5036362;28;20057;-66
2023/02/05 00:24:22;;;;;;;5.00;1.50;;;;;;;;;;5020958;28;20059;-66
2023/02/05 00:26:52;;;;;;;5.45;1.50;;;;;;;;;;5003829;28;20048;-65
2023/02/05 00:29:23;;;;;;;5.30;1.33;;;;;;;;;;5070776;28;20048;-65
2023/02/05 00:31:54;;;;;;;6.65;1.67;;;;;;;;;;5070477;28;20056;-66
2023/02/05 00:34:24;;;;;;;3.63;2.70;;;;;;;;;;5030538;28;20049;-66
2023/02/05 00:36:54;;;;;;;3.67;1.40;;;;;;;;;;4990861;28;20047;-65
2023/02/05 00:39:24;;;;;;;4.35;1.60;;;;;;;;;;4991008;28;20054;-66
2023/02/05 00:41:55;;;;;;;3.00;1.27;;;;;;;;;;4990743;28;20069;-66
2023/02/05 00:44:25;;;;;;;9.02;1.33;;;;;;;;;;4942671;28;20061;-65
2023/02/05 00:46:55;;;;;;;3.72;1.88;;;;;;;;;;4951780;28;20062;-66
2023/02/05 00:49:26;;;;;;;6.32;1.52;;;;;;;;;;4951477;28;20055;-66
2023/02/05 00:51:56;;;;;;;7.45;1.92;;;;;;;;;;4970971;28;20070;-66
2023/02/05 00:54:26;;;;;;;5.57;1.60;;;;;;;;;;4940152;28;20063;-65
2023/02/05 00:56:57;;;;;;;7.75;2.00;;;;;;;;;;4989605;28;20054;-65
2023/02/05 00:59:27;;;;;;;9.18;2.20;;;;;;;;;;4970901;28;20103;-66
2023/02/05 01:01:57;;;;;;;6.53;1.70;;;;;;;;;;4955001;28;20058;-66
2023/02/05 01:04:28;;;;;;;6.43;1.40;;;;;;;;;;4954800;28;20474;-66
2023/02/05 01:06:58;;;;;;;8.85;1.70;;;;;;;;;;4935693;28;20043;-66
2023/02/05 01:09:28;;;;;;;4.90;1.92;;;;;;;;;;4951333;28;20532;-66
2023/02/05 01:11:59;;;;;;;3.75;1.73;;;;;;;;;;4935441;28;20438;-66
2023/02/05 01:14:30;;;;;;;4.38;1.67;;;;;;;;;;4960680;28;20062;-66
2023/02/05 01:17:00;;;;;;;6.78;1.80;;;;;;;;;;4951174;29;20051;-66
2023/02/05 01:19:32;;;;;;;4.93;1.73;;;;;;;;;;4951600;29;20071;-66
2023/02/05 01:22:02;;;;;;;4.10;1.90;;;;;;;;;;4951449;29;20531;-66
2023/02/05 01:24:33;;;;;;;8.20;2.30;;;;;;;;;;4922842;29;20059;-66
2023/02/05 01:27:03;;;;;;;5.65;2.00;;;;;;;;;;4927352;29;20051;-66
2023/02/05 01:29:33;;;;;;;5.38;1.90;;;;;;;;;;4941398;29;20161;-66
2023/02/05 01:32:03;;;;;;;6.03;1.85;;;;;;;;;;4931937;29;20063;-66
2023/02/05 01:34:34;;;;;;;4.15;1.95;;;;;;;;;;4931935;29;20055;-66
2023/02/05 01:37:04;;;;;;;4.70;2.05;;;;;;;;;;4931775;29;20054;-66
2023/02/05 01:39:36;;;;;;;6.90;2.20;;;;;;;;;;4916331;29;20063;-65
2023/02/05 01:42:19;;;;;;;5.15;1.92;;;;;;;;;;4915680;29;20567;-66
2023/02/05 01:45:21;;;;;;;8.15;2.30;;;;;;;;;;4911290;29;20050;-66
2023/02/05 01:47:54;;;;;;;5.40;1.98;;;;;;;;;;4981153;28;20414;-66
2023/02/05 01:50:29;;;;;;;;;;;;;;;;;;5009834;28;20053;-66
2023/02/05 01:53:07;;;;;;;4.32;2.10;;;;;;;;;;5009208;28;19921;-66
2023/02/05 01:55:49;;;;;;;6.22;2.17;;;;;;;;;;4959548;28;20065;-66
2023/02/05 01:58:19;;;;;;;9.43;2.13;;;;;;;;;;4970415;28;20057;-66
2023/02/05 02:00:49;;;;;;;7.78;2.10;;;;;;;;;;4937760;28;20522;-65
2023/02/05 02:03:22;;;;;;;8.25;2.10;;;;;;;;;;4988689;28;20057;-66
2023/02/05 02:05:52;;;;;;;6.07;1.80;;;;;;;;;;4973415;28;20054;-66
2023/02/05 02:08:23;;;;;;;6.47;2.05;;;;;;;;;;4989640;28;20061;-65
2023/02/05 02:10:57;;;;;;;6.10;1.90;;;;;;;;;;5008917;28;20473;-66
2023/02/05 02:13:30;;;;;;;6.97;1.92;;;;;;;;;;4976574;28;20061;-65
2023/02/05 02:16:05;;;;;;;7.05;1.92;;;;;;;;;;5028378;28;20045;-65
2023/02/05 02:18:37;;;;;;;9.60;1.90;;;;;;;;;;4996142;28;20524;-66
2023/02/05 02:21:07;;;;;;;6.78;2.20;;;;;;;;;;5028918;28;20540;-65
2023/02/05 02:24:00;;;;;;;9.68;2.42;;;;;;;;;;5028546;28;20054;-66
2023/02/05 02:26:41;;;;;;;8.70;2.03;;;;;;;;;;5028735;28;20054;-66
2023/02/05 02:29:18;;;;;;;7.80;1.90;;;;;;;;;;5023979;28;20049;-65
2023/02/05 02:32:00;;;;;;;5.47;2.03;;;;;;;;;;5048679;28;20065;-65
2023/02/05 02:34:37;;;;;;;7.18;1.77;;;;;;;;;;5048250;28;20526;-65
2023/02/05 02:37:20;;;;;;;4.10;2.40;;;;;;;;;;5028518;28;20053;-66
2023/02/05 02:39:59;;;;;;;4.25;1.80;;;;;;;;;;4995737;28;20440;-66
2023/02/05 02:42:42;;;;;;;7.47;2.10;;;;;;;;;;5008748;28;20046;-66
2023/02/05 02:45:13;;;;;;;6.85;2.25;;;;;;;;;;4990250;28;20042;-66
2023/02/05 02:47:51;;;;;;;5.35;2.13;;;;;;;;;;4992677;28;20407;-65
2023/02/05 02:50:34;;;;;;;5.93;1.60;;;;;;;;;;4993095;28;20418;-65
2023/02/05 02:53:35;;;;;;;5.85;1.80;;;;;;;;;;4992721;28;20062;-66
2023/02/05 02:56:07;;;;;;;4.53;1.63;;;;;;;;;;4915720;29;20052;-65
2023/02/05 02:59:09;;;;;;;6.90;1.95;;;;;;;;;;4915974;29;20052;-66
2023/02/05 03:01:41;;;;;;;4.30;1.80;;;;;;;;;;4896575;29;20060;-66
2023/02/05 03:04:26;;;;;;;7.00;2.20;;;;;;;;;;4873375;29;20437;-65
2023/02/05 03:07:13;;;;;;;5.30;1.60;;;;;;;;;;4853817;29;20595;-66
2023/02/05 03:10:01;;;;;;;6.95;1.83;;;;;;;;;;4893362;29;20053;-66
2023/02/05 03:12:31;;;;;;;5.63;1.50;;;;;;;;;;4878089;29;20057;-66
2023/02/05 03:15:02;;;;;;;4.45;1.77;;;;;;;;;;4877893;29;20494;-66
2023/02/05 03:17:33;;;;;;;3.78;1.40;;;;;;;;;;4858879;29;20076;-66
2023/02/05 03:20:21;;;;;;;6.35;1.80;;;;;;;;;;4813406;29;20073;-65
2023/02/05 03:22:52;;;;;;;5.65;2.58;;;;;;;;;;4868116;29;21058;-66
2023/02/05 03:25:29;;;;;;;8.80;2.30;;;;;;;;;;4859140;29;20069;-65
2023/02/05 03:28:01;;;;;;;9.82;2.05;;;;;;;;;;4877445;29;20048;-65
2023/02/05 03:30:48;;;;;;;4.47;2.17;;;;;;;;;;4840126;29;20062;-66
2023/02/05 03:33:46;;;;;;;6.35;1.80;;;;;;;;;;4846634;29;20081;-65
2023/02/05 03:36:29;;;;;;;3.45;1.85;;;;;;;;;;4849665;29;20054;-65
2023/02/05 03:39:09;;;;;;;5.53;1.98;;;;;;;;;;4855639;29;20060;-66
2023/02/05 03:41:54;;;;;;;3.65;1.88;;;;;;;;;;4858878;29;20064;-65
2023/02/05 03:44:44;;;;;;;7.47;2.00;;;;;;;;;;4866090;29;20061;-66
2023/02/05 03:47:35;;;;;;;5.63;1.92;;;;;;;;;;4877148;29;20060;-65
2023/02/05 03:50:10;;;;;;;5.05;1.73;;;;;;;;;;4858855;29;20514;-66
2023/02/05 03:52:54;;;;;;;7.95;1.95;;;;;;;;;;4877691;29;20057;-66
2023/02/05 03:55:35;;;;;;;6.57;1.73;;;;;;;;;;4877004;29;20242;-65
2023/02/05 03:58:21;;;;;;;4.68;1.80;;;;;;;;;;4896411;29;20552;-65
2023/02/05 04:00:51;;;;;;;4.65;1.65;;;;;;;;;;4926890;29;20055;-66
2023/02/05 04:03:22;;;;;;;4.95;1.77;;;;;;;;;;4895805;29;20060;-65
2023/02/05 04:05:53;;;;;;;5.07;2.08;;;;;;;;;;4895974;29;20061;-66
2023/02/05 04:08:23;;;;;;;4.95;2.17;;;;;;;;;;4885121;29;20053;-65
2023/02/05 04:10:54;;;;;;;3.75;1.75;;;;;;;;;;4919642;29;20060;-66
2023/02/05 04:13:25;;;;;;;5.00;1.85;;;;;;;;;;4933394;29;20055;-66
2023/02/05 04:15:56;;;;;;;6.35;1.73;;;;;;;;;;4933483;29;20069;-65
2023/02/05 04:18:26;;;;;;;7.28;1.90;;;;;;;;;;4933328;29;20063;-65
2023/02/05 04:20:58;;;;;;;6.88;2.00;;;;;;;;;;4898151;29;20063;-65
2023/02/05 04:23:31;;;;;;;7.40;2.20;;;;;;;;;;4891587;29;20053;-66
2023/02/05 04:26:02;;;;;;;5.65;1.95;;;;;;;;;;4882932;29;20060;-65
2023/02/05 04:28:38;;;;;;;7.50;2.10;;;;;;;;;;4834808;29;20073;-66
2023/02/05 04:31:11;;;;;;;4.05;1.77;;;;;;;;;;4854816;29;20064;-66
2023/02/05 04:33:42;;;;;;;7.72;2.45;;;;;;;;;;4843944;29;20551;-65
2023/02/05 04:36:15;;;;;;;5.93;2.28;;;;;;;;;;4839500;29;20061;-65
2023/02/05 04:38:45;;;;;;;7.65;2.10;;;;;;;;;;4810319;29;20055;-65
2023/02/05 04:41:15;;;;;;;6.40;2.40;;;;;;;;;;4813613;29;20057;-65
2023/02/05 04:43:45;;;;;;;6.45;2.28;;;;;;;;;;4821001;29;20059;-67
2023/02/05 04:46:15;;;;;;;5.97;2.22;;;;;;;;;;4821230;29;20066;-65
2023/02/05 04:48:45;;;;;;;3.28;1.80;;;;;;;;;;4846389;29;20061;-65
2023/02/05 04:51:16;;;;;;;4.20;2.20;;;;;;;;;;4871073;29;20063;-66
2023/02/05 04:53:46;;;;;;;6.00;2.22;;;;;;;;;;4895003;29;20678;-67
2023/02/05 04:56:17;;;;;;;6.88;2.15;;;;;;;;;;4894926;29;20410;-66
2023/02/05 04:58:47;;;;;;;5.53;2.28;;;;;;;;;;4905678;29;20068;-65
2023/02/05 05:01:20;;;;;;;7.82;2.30;;;;;;;;;;4903494;29;20063;-67
2023/02/05 05:03:50;;;;;;;5.20;1.92;;;;;;;;;;4942478;28;20585;-66
2023/02/05 05:06:20;;;;;;;7.10;2.13;;;;;;;;;;4961154;28;20046;-66
2023/02/05 05:08:50;;;;;;;6.18;2.33;;;;;;;;;;4970497;28;20055;-65
2023/02/05 05:11:20;;;;;;;6.43;2.38;;;;;;;;;;4971028;28;20059;-66
2023/02/05 05:13:51;;;;;;;4.97;1.80;;;;;;;;;;4955348;28;20074;-65
2023/02/05 05:16:21;;;;;;;4.22;1.77;;;;;;;;;;4970977;28;20506;-67
2023/02/05 05:18:52;;;;;;;4.18;1.65;;;;;;;;;;4989862;28;20057;-66
2023/02/05 05:21:22;;;;;;;8.77;1.88;;;;;;;;;;5009793;28;20062;-66
2023/02/05 05:23:52;;;;;;;6.13;1.88;;;;;;;;;;5009899;28;20054;-65
2023/02/05 05:26:22;;;;;;;5.10;1.35;;;;;;;;;;5018597;28;20053;-66
2023/02/05 05:28:55;;;;;;;7.30;1.80;;;;;;;;;;4980665;28;20057;-66
2023/02/05 05:31:25;;;;;;;5.70;1.70;;;;;;;;;;5029723;28;20064;-65
2023/02/05 05:33:55;;;;;;;5.20;2.22;;;;;;;;;;4980208;28;20057;-66
2023/02/05 05:36:25;;;;;;;4.65;2.10;;;;;;;;;;4996612;28;21011;-66
2023/02/05 05:43:45;;;;;;;6.35;2.47;;;;;;;;;;4996766;28;20068;-66
2023/02/05 05:44:34;;;;;;;6.53;2.15;;;;;;;;;;5060835;28;20061;-66
2023/02/05 05:47:04;;;;;;;10.05;2.30;;;;;;;;;;5071651;28;20480;-66
2023/02/05 05:49:34;;;;;;;11.50;2.03;;;;;;;;;;5071480;28;20041;-66
2023/02/05 05:52:04;;;;;;;4.57;2.15;;;;;;;;;;5071744;28;20040;-66
2023/02/05 05:54:34;;;;;;;5.57;1.95;;;;;;;;;;5071631;28;20538;-67
2023/02/05 05:57:05;;;;;;;4.32;1.98;;;;;;;;;;5071572;28;20051;-67
2023/02/05 05:59:36;;;;;;;8.55;2.10;;;;;;;;;;5036078;28;20064;-66
2023/02/05 06:02:06;;;;;;;4.88;2.15;;;;;;;;;;5052646;28;20385;-67
2023/02/05 06:04:36;;;;;;;7.05;2.05;;;;;;;;;;5071443;28;20033;-68
2023/02/05 06:07:06;;;;;;;5.65;1.90;;;;;;;;;;5036045;28;20390;-66
2023/02/05 06:09:36;;;;;;;9.27;2.00;;;;;;;;;;5088949;28;20407;-67
2023/02/05 06:12:07;;;;;;;7.18;2.00;;;;;;;;;;5040097;28;20060;-67
2023/02/05 06:14:39;;;;;;;6.75;1.83;;;;;;;;;;5048464;28;20539;-68
2023/02/05 06:17:09;;;;;;;7.18;1.45;;;;;;;;;;5048829;28;20049;-66
2023/02/05 06:19:38;;;;;;;3.75;1.77;;;;;;;;;;5049131;28;20079;-69
2023/02/05 06:22:08;;;;;;;8.27;1.88;;;;;;;;;;5019789;28;20065;-67
2023/02/05 06:24:39;;;;;;;5.00;1.63;;;;;;;;;;5019641;28;20100;-67
2023/02/05 06:27:09;;;;;;;4.60;2.05;;;;;;;;;;5052636;28;20197;-67
2023/02/05 06:29:39;;;;;;;4.90;2.05;;;;;;;;;;5052795;28;20056;-67
2023/02/05 06:32:09;;;;;;;7.38;1.73;;;;;;;;;;5019495;28;20052;-66
2023/02/05 06:34:39;;;;;;;7.55;2.28;;;;;;;;;;5020681;28;20060;-68
2023/02/05 06:37:09;;;;;;;4.75;1.83;;;;;;;;;;5052664;28;20056;-67
2023/02/05 06:39:40;;;;;;;5.38;2.08;;;;;;;;;;5052479;28;20056;-68
2023/02/05 06:42:10;;;;;;;8.52;2.00;;;;;;;;;;5052784;28;20040;-67
2023/02/05 06:44:40;;;;;;;6.72;1.65;;;;;;;;;;5052367;28;20060;-67
2023/02/05 06:47:10;;;;;;;4.28;1.92;;;;;;;;;;5042504;28;20133;-67
2023/02/05 06:49:40;;;;;;;10.93;2.17;;;;;;;;;;5032854;28;20053;-68
2023/02/05 06:52:10;;;;;;;6.88;1.95;;;;;;;;;;5051814;28;20067;-68
2023/02/05 06:54:42;;;;;;;11.68;2.70;;;;;;;;;;5055774;28;20507;-67
2023/02/05 06:57:12;;;;;;;7.60;2.13;;;;;;;;;;5072532;28;20048;-67
2023/02/05 06:59:42;;;;;;;7.93;2.00;;;;;;;;;;5074958;28;20043;-66
2023/02/05 07:02:13;;;;;;;5.55;2.60;;;;;;;;;;5040168;28;20064;-64
2023/02/05 07:04:43;;;;;;;5.47;2.05;;;;;;;;;;5071979;28;20048;-67
2023/02/05 07:07:15;;;;;;;4.95;2.05;;;;;;;;;;5072148;28;20056;-66
2023/02/05 07:09:45;;;;;;;5.95;1.90;;;;;;;;;;5072167;28;20060;-66
2023/02/05 07:12:15;;;;;;;5.45;2.13;;;;;;;;;;5055609;28;20151;-67
2023/02/05 07:14:45;;;;;;;5.80;1.77;;;;;;;;;;5072248;28;20535;-68
2023/02/05 07:17:15;;;;;;;5.55;1.83;;;;;;;;;;5071933;28;20060;-66
2023/02/05 07:19:45;;;;;;;4.55;2.05;;;;;;;;;;5072000;28;20060;-67
2023/02/05 07:22:15;;;;;;;6.10;1.73;;;;;;;;;;5051439;28;20063;-66
2023/02/05 07:24:46;;;;;;;3.88;1.77;;;;;;;;;;5002576;28;20057;-67
2023/02/05 07:27:16;;;;;;;3.88;1.63;;;;;;;;;;5018490;28;20060;-67
2023/02/05 07:29:46;;;;;;;9.75;1.73;;;;;;;;;;5018757;28;20068;-68
2023/02/05 07:32:16;;;;;;;6.65;2.08;;;;;;;;;;5011361;28;20065;-70
2023/02/05 07:34:46;;;;;;;9.73;2.88;;;;;;;;;;5011673;28;20552;-68
2023/02/05 07:37:16;;;;;;;4.70;2.20;;;;;;;;;;5011954;28;20069;-69
2023/02/05 07:39:48;;;;;;;;;;;;;;;;;;4964256;28;20058;-67
2023/02/05 07:42:18;;;;;;;4.22;2.05;;;;;;;;;;5021157;28;20300;-68
2023/02/05 07:44:55;;;;;;;5.40;2.25;;;;;;;;;;5011433;28;20052;-68
2023/02/05 07:47:25;;;;;;;3.38;1.55;;;;;;;;;;4975402;28;20057;-69
2023/02/05 07:49:55;;;;;;;6.55;2.10;;;;;;;;;;4943623;28;20065;-67
2023/02/05 07:52:25;;;;;;;3.83;1.83;;;;;;;;;;4991816;28;20058;-68
2023/02/05 07:54:55;;;;;;;5.00;1.63;;;;;;;;;;4992005;28;20050;-66
2023/02/05 07:57:28;;;;;;;5.82;1.70;;;;;;;;;;4991744;28;20493;-68
2023/02/05 07:59:58;;;;;;;5.30;1.88;;;;;;;;;;5002190;28;20057;-67
2023/02/05 08:02:28;;;;;;;4.03;1.67;;;;;;;;;;4980596;28;20505;-64
2023/02/05 08:04:58;;;;;;;8.00;2.08;;;;;;;;;;5014776;28;20057;-67
2023/02/05 08:07:28;;;;;;;6.72;2.15;;;;;;;;;;4998474;28;20603;-66
2023/02/05 08:09:57;;;;;;;3.65;1.80;;;;;;;;;;5031045;28;20049;-67
2023/02/05 08:12:28;;;;;;;7.22;1.95;;;;;;;;;;4998001;28;20547;-66
2023/02/05 08:14:58;;;;;;;6.00;2.28;;;;;;;;;;5014424;28;20642;-66
2023/02/05 08:17:28;;;;;;;4.50;1.73;;;;;;;;;;5031190;28;20084;-66
2023/02/05 08:20:05;;;;;;;5.97;1.83;;;;;;;;;;5031049;28;20060;-67
2023/02/05 08:22:41;;;;;;;4.70;2.42;;;;;;;;;;5051232;28;20053;-66
2023/02/05 08:25:13;;;;;;;4.22;2.10;;;;;;;;;;5050250;28;20060;-65
2023/02/05 08:27:44;;;;;;;4.95;2.05;;;;;;;;;;5050515;28;20057;-67
2023/02/05 08:30:17;;;;;;;8.45;2.10;;;;;;;;;;5017449;28;20061;-66
2023/02/05 08:32:48;;;;;;;4.57;1.85;;;;;;;;;;5030331;28;20516;-66
2023/02/05 08:35:18;;;;;;;6.63;2.20;;;;;;;;;;5030422;28;20057;-67
2023/02/05 08:37:48;;;;;;;6.72;2.42;;;;;;;;;;5013893;28;20580;-68
2023/02/05 08:40:19;;;;;;;5.75;1.70;;;;;;;;;;5010501;28;20056;-67
2023/02/05 08:42:51;;;;;;;12.43;1.60;;;;;;;;;;4954658;28;20055;-66
2023/02/05 08:45:22;;;;;;;4.35;1.95;;;;;;;;;;4987460;28;20054;-66
2023/02/05 08:47:52;;;;;;;5.72;1.77;;;;;;;;;;4939728;28;20059;-66
2023/02/05 08:50:22;;;;;;;3.45;1.70;;;;;;;;;;4971549;28;20392;-66
2023/02/05 08:52:52;;;;;;;6.75;1.88;;;;;;;;;;4971078;28;20066;-66
2023/02/05 08:55:22;;;;;;;3.53;1.83;;;;;;;;;;4971416;28;20051;-65
2023/02/05 08:57:54;;;;;;;12.27;2.70;;;;;;;;;;4971159;28;20058;-65
2023/02/05 09:00:24;;;;;;;4.55;2.15;;;;;;;;;;4971438;28;20077;-65
2023/02/05 09:02:55;;;;;;;4.30;1.98;;;;;;;;;;4981607;28;20065;-66
2023/02/05 09:05:25;;;;;;;7.28;2.28;;;;;;;;;;4990721;28;20561;-67
2023/02/05 09:07:57;;;;;;;10.30;1.92;;;;;;;;;;4990725;28;20058;-66
2023/02/05 09:10:28;;;;;;;4.97;1.70;;;;;;;;;;4968197;28;20477;-65
2023/02/05 09:12:57;;;;;;;7.07;2.60;;;;;;;;;;5012942;28;20390;-65
2023/02/05 09:15:28;;;;;;;7.25;2.10;;;;;;;;;;5016495;28;20057;-66
2023/02/05 09:17:58;;;;;;;7.25;2.20;;;;;;;;;;5061203;28;20523;-66
2023/02/05 09:20:28;;;;;;;7.18;2.30;;;;;;;;;;5072111;28;20041;-66
2023/02/05 09:22:58;;;;;;;7.93;1.83;;;;;;;;;;5036676;28;20053;-66
2023/02/05 09:25:28;;;;;;;6.07;2.10;;;;;;;;;;5073281;28;20491;-66
2023/02/05 09:27:59;;;;;;;3.63;2.00;;;;;;;;;;5056559;28;20048;-68
2023/02/05 09:30:29;;;;;;;6.95;2.65;;;;;;;;;;5091970;28;20067;-66
2023/02/05 09:33:02;;;;;;;3.95;2.28;;;;;;;;;;5073444;28;20084;-67
2023/02/05 09:35:33;;;;;;;4.40;2.05;;;;;;;;;;5091676;28;20066;-66
2023/02/05 09:38:04;;;;;;;6.15;1.92;;;;;;;;;;5040240;28;20067;-67
2023/02/05 09:40:38;;;;;;;10.35;2.13;;;;;;;;;;5092024;28;20483;-67
2023/02/05 09:43:34;;;;;;;6.00;2.00;;;;;;;;;;5092096;28;20500;-66
2023/02/05 09:46:15;;;;;;;3.92;1.77;;;;;;;;;;5028482;28;20063;-66
2023/02/05 09:49:12;;;;;;;8.07;2.25;;;;;;;;;;5072753;28;20074;-66
2023/02/05 09:51:46;;;;;;;5.65;2.55;;;;;;;;;;5072688;28;20048;-66
2023/02/05 09:54:23;;;;;;;8.25;2.92;;;;;;;;;;5057767;28;20056;-66
2023/02/05 09:56:57;;;;;;;7.00;3.30;;;;;;;;;;5088888;28;20048;-65
2023/02/05 09:59:28;;;;;;;10.23;2.65;;;;;;;;;;5089184;28;20048;-65
2023/02/05 10:02:00;;;;;;;6.75;2.42;;;;;;;;;;5088874;28;20048;-68
2023/02/05 10:04:33;;;;;;;8.20;3.00;;;;;;;;;;5089257;28;20117;-65
2023/02/05 10:07:16;;;;;;;6.78;3.00;;;;;;;;;;5048741;28;20049;-66
2023/02/05 10:10:19;;;;;;;8.90;2.53;;;;;;;;;;5016597;28;20052;-66
2023/02/05 10:13:09;;;;;;;7.63;2.35;;;;;;;;;;5048920;28;20497;-65
2023/02/05 10:15:49;;;;;;;;;;;;;;;;;;5049314;28;20045;-66
2023/02/05 10:18:34;;;;;;;5.15;2.15;;;;;;;;;;5015841;28;19921;-66
2023/02/05 10:21:10;;;;;;;5.07;2.00;;;;;;;;;;5048765;28;20056;-66
2023/02/05 10:23:51;;;;;;;6.13;2.45;;;;;;;;;;5028462;28;20049;-66
2023/02/05 10:26:25;;;;;;;8.18;2.40;;;;;;;;;;4979475;28;20045;-66
2023/02/05 10:29:18;;;;;;;5.78;2.20;;;;;;;;;;5028692;28;20060;-66
2023/02/05 10:31:55;;;;;;;5.93;1.88;;;;;;;;;;4934692;28;20067;-66
2023/02/05 10:34:54;;;;;;;5.60;2.38;;;;;;;;;;4919034;28;20055;-66
2023/02/05 10:37:32;;;;;;;7.68;2.80;;;;;;;;;;4950652;28;20066;-66
2023/02/05 10:40:15;;;;;;;3.40;1.77;;;;;;;;;;4950812;28;20058;-65
2023/02/05 10:42:53;;;;;;;5.85;2.30;;;;;;;;;;4950488;28;20051;-66
2023/02/05 10:45:28;;;;;;;6.93;2.58;;;;;;;;;;4981043;28;20549;-66
2023/02/05 10:48:35;;;;;;;4.63;2.55;;;;;;;;;;4989475;28;20054;-66
2023/02/05 10:51:12;;;;;;;8.25;2.72;;;;;;;;;;4989267;28;20046;-66
2023/02/05 10:53:43;;;;;;;7.05;2.63;;;;;;;;;;4990249;28;20043;-67
2023/02/05 10:56:17;;;;;;;7.35;3.38;;;;;;;;;;4960382;28;20057;-65
2023/02/05 10:59:00;;;;;;;6.57;2.67;;;;;;;;;;4976200;28;20050;-66
2023/02/05 11:01:37;;;;;;;6.22;2.60;;;;;;;;;;5008674;28;20050;-65
2023/02/05 11:04:33;;;;;;;5.40;2.00;;;;;;;;;;5008801;28;20053;-66
2023/02/05 11:07:05;;;;;;;5.55;2.53;;;;;;;;;;4994800;28;20502;-65
2023/02/05 11:09:35;;;;;;;8.23;2.08;;;;;;;;;;5061691;28;20064;-65
2023/02/05 11:12:27;;;;;;;6.90;2.10;;;;;;;;;;5076224;28;20056;-65
2023/02/05 11:15:00;;;;;;;6.32;1.67;;;;;;;;;;5059050;28;20059;-66
2023/02/05 11:17:35;;;;;;;6.68;2.17;;;;;;;;;;5094475;28;20388;-65
2023/02/05 11:20:32;;;;;;;5.45;1.90;;;;;;;;;;5058899;28;20055;-65
2023/02/05 11:23:20;;;;;;;6.07;1.55;;;;;;;;;;4992803;28;20057;-65
2023/02/05 11:25:56;;;;;;;5.88;2.03;;;;;;;;;;4968074;28;20056;-64
2023/02/05 11:28:31;;;;;;;4.35;1.80;;;;;;;;;;4964203;28;20059;-65
2023/02/05 11:31:24;;;;;;;4.32;2.05;;;;;;;;;;4953901;29;20507;-66
2023/02/05 11:34:09;;;;;;;5.38;1.67;;;;;;;;;;4953936;29;20062;-65
2023/02/05 11:36:52;;;;;;;5.20;2.00;;;;;;;;;;4953559;29;20039;-65
2023/02/05 11:39:35;;;;;;;6.45;1.58;;;;;;;;;;4937949;29;20063;-65
2023/02/05 11:42:25;;;;;;;4.05;1.40;;;;;;;;;;4937879;29;20051;-65
2023/02/05 11:44:59;;;;;;;2.55;1.10;;;;;;;;;;4915242;29;20059;-66
2023/02/05 11:47:39;;;;;;;15.38;5.78;;;;;;;;;;4923921;29;20503;-66
2023/02/05 11:50:25;;;;;;;3.20;1.25;;;;;;;;;;4917687;29;20100;-66
2023/02/05 11:53:04;;;;;;;4.70;1.70;;;;;;;;;;4916137;29;20067;-67
2023/02/05 11:55:35;;;;;;;15.75;7.20;;;;;;;;;;4917770;29;20048;-66
2023/02/05 11:58:18;;;;;;;2.58;1.10;;;;;;;;;;4916541;29;20052;-67
2023/02/05 12:01:22;;;;;;;8.95;3.60;;;;;;;;;;4969176;28;20061;-66
2023/02/05 12:04:10;;;;;;;12.75;5.90;;;;;;;;;;5036875;28;20057;-66
2023/02/05 12:06:52;;;;;;;5.63;3.45;;;;;;;;;;5050622;28;20428;-66
2023/02/05 12:09:24;;;;;;;5.88;2.70;;;;;;;;;;5049361;28;20144;-66
2023/02/05 12:12:10;;;;;;;13.32;8.70;;;;;;;;;;5047978;28;20548;-67
2023/02/05 12:15:16;;;;;;;19.90;12.27;;;;;;;;;;5007816;28;20042;-67
2023/02/05 12:18:21;;;;;;;8.57;4.22;;;;;;;;;;5028987;28;20064;-66
2023/02/05 12:21:32;;;;;;;2.53;1.48;;;;;;;;;;5070623;28;20052;-66
2023/02/05 12:24:49;;;;;;;4.63;2.10;;;;;;;;;;5010844;28;20057;-65
2023/02/05 12:27:25;;;;;;;5.13;2.85;;;;;;;;;;4991340;28;20054;-66
2023/02/05 12:29:56;;;;;;;4.70;1.50;;;;;;;;;;4959245;28;20042;-66
2023/02/05 12:32:59;;;;;;;3.72;1.10;;;;;;;;;;4991379;28;20066;-66
2023/02/05 12:35:46;;;;;;;;;;;;;;;;;;4940187;28;20066;-66
2023/02/05 12:38:40;;;;;;;2.38;0.82;;;;;;;;;;4951882;29;20306;-66
2023/02/05 12:41:16;;;;;;;3.28;1.02;;;;;;;;;;4937293;28;20070;-67
2023/02/05 12:43:49;;;;;;;4.55;0.98;;;;;;;;;;4983556;28;20063;-64
2023/02/05 12:47:06;;;;;;;4.00;1.10;;;;;;;;;;4935286;28;20059;-65
2023/02/05 12:49:55;;;;;;;1.98;0.80;;;;;;;;;;4893481;29;20049;-65
2023/02/05 12:52:41;;;;;;;10.98;7.80;;;;;;;;;;4891210;29;20068;-65
2023/02/05 12:55:36;;;;;;;2.38;1.10;;;;;;;;;;4892478;29;20575;-65
2023/02/05 12:58:12;;;;;;;1.73;0.40;;;;;;;;;;4895121;29;20097;-66
2023/02/05 13:00:56;;;;;;;7.35;3.58;;;;;;;;;;4902829;29;20060;-67
2023/02/05 13:03:37;;;;;;;2.13;0.63;;;;;;;;;;4904493;29;20048;-66
2023/02/05 13:06:16;;;;;;;5.63;1.83;;;;;;;;;;4902287;29;20064;-65
2023/02/05 13:08:51;;;;;;;2.97;1.40;;;;;;;;;;4933340;29;20056;-66
2023/02/05 13:11:26;;;;;;;3.25;1.40;;;;;;;;;;4948644;28;20055;-65
2023/02/05 13:14:05;;;;;;;3.97;1.10;;;;;;;;;;5004081;28;20510;-66
2023/02/05 13:16:49;;;;;;;5.18;1.00;;;;;;;;;;4971521;28;20043;-66
2023/02/05 13:19:22;;;;;;;4.93;1.48;;;;;;;;;;5006433;28;20058;-66
2023/02/05 13:30:45;;;;;;;1.67;0.40;;;;;;;;;;5067927;28;20052;-66
2023/02/05 13:33:16;;;;;;;1.10;0.30;;;;;;;;;;5060102;28;20049;-65
2023/02/05 13:36:28;;;;;;;2.03;0.50;;;;;;;;;;5053895;28;20064;-66
2023/02/05 13:39:00;;;;;;;1.67;0.82;;;;;;;;;;4950792;28;20058;-66
2023/02/05 13:41:57;;;;;;;1.25;0.60;;;;;;;;;;4980642;28;20042;-67
2023/02/05 13:44:36;;;;;;;1.98;0.90;;;;;;;;;;4982418;28;20426;-65
2023/02/05 13:47:54;;;;;;;4.88;2.38;;;;;;;;;;4982805;28;20808;-66
2023/02/05 13:50:35;;;;;;;4.03;1.67;;;;;;;;;;4932029;29;20048;-66
2023/02/05 13:53:27;;;;;;;3.85;1.45;;;;;;;;;;4947824;29;20516;-65
2023/02/05 13:56:36;;;;;;;3.22;1.60;;;;;;;;;;4931994;29;20083;-65
2023/02/05 13:59:18;;;;;;;6.43;1.13;;;;;;;;;;4857039;29;20065;-66
2023/02/05 14:01:59;;;;;;;3.72;1.23;;;;;;;;;;4850602;29;20062;-64
2023/02/05 14:04:52;;;;;;;5.20;0.80;;;;;;;;;;4838279;29;20058;-66
2023/02/05 14:08:01;;;;;;;8.88;4.70;;;;;;;;;;4842159;29;20062;-66
2023/02/05 14:10:40;;;;;;;4.70;2.55;;;;;;;;;;4856797;29;20069;-65
2023/02/05 14:13:33;;;;;;;1.58;0.60;;;;;;;;;;4811013;29;20065;-65
2023/02/05 14:16:25;;;;;;;4.15;1.25;;;;;;;;;;4870021;29;20406;-65
2023/02/05 14:19:01;;;;;;;2.60;0.40;;;;;;;;;;4862716;29;20087;-66
2023/02/05 14:21:31;;;;;;;2.05;0.57;;;;;;;;;;4837634;29;20068;-65
2023/02/05 14:24:26;;;;;;;1.95;0.40;;;;;;;;;;4875600;29;20533;-66
2023/02/05 14:26:59;;;;;;;2.35;0.70;;;;;;;;;;4870725;29;20052;-66
2023/02/05 14:29:50;;;;;;;3.53;1.35;;;;;;;;;;4894023;29;20061;-64
2023/02/05 14:32:28;;;;;;;2.60;0.60;;;;;;;;;;4894102;29;20580;-65
2023/02/05 14:35:28;;;;;;;2.90;0.73;;;;;;;;;;4925254;29;20376;-65
2023/02/05 14:38:32;;;;;;;1.60;0.50;;;;;;;;;;4934536;29;20499;-65
2023/02/05 14:41:18;;;;;;;2.38;0.77;;;;;;;;;;4881938;29;20056;-65
2023/02/05 14:43:59;;;;;;;1.98;0.40;;;;;;;;;;4916428;29;20505;-64
2023/02/05 14:46:31;;;;;;;0.98;0.40;;;;;;;;;;4920002;29;20525;-64
2023/02/05 14:49:04;;;;;;;4.35;1.63;;;;;;;;;;4954922;29;20054;-65
2023/02/05 14:51:40;;;;;;;1.60;0.40;;;;;;;;;;4922405;29;20500;-66
2023/02/05 14:54:15;;;;;;;2.28;0.50;;;;;;;;;;4925297;29;20539;-65
2023/02/05 14:56:50;;;;;;;3.25;0.47;;;;;;;;;;4928169;29;20059;-65
2023/02/05 14:59:35;;;;;;;1.17;0.40;;;;;;;;;;4935101;29;20063;-63
2023/02/05 15:02:44;;;;;;;1.95;0.40;;;;;;;;;;4934984;29;20527;-65
2023/02/05 15:05:28;;;;;;;1.67;0.30;;;;;;;;;;4940088;28;20062;-65
2023/02/05 15:08:18;;;;;;;2.55;0.60;;;;;;;;;;4965938;28;20051;-65
2023/02/05 15:11:02;;;;;;;2.67;0.60;;;;;;;;;;4970496;28;20062;-65
2023/02/05 15:13:32;;;;;;;2.55;0.80;;;;;;;;;;4957278;28;20407;-64
2023/02/05 15:16:12;;;;;;;3.40;0.90;;;;;;;;;;4968659;28;20047;-64
2023/02/05 15:18:58;;;;;;;2.42;0.90;;;;;;;;;;4982227;28;20053;-65
2023/02/05 15:21:38;;;;;;;1.08;0.40;;;;;;;;;;5032400;28;20048;-65
2023/02/05 15:24:27;;;;;;;3.08;0.75;;;;;;;;;;5032564;28;20052;-65
2023/02/05 15:27:01;;;;;;;1.45;0.60;;;;;;;;;;5003285;28;20056;-64
2023/02/05 15:29:40;;;;;;;1.58;0.65;;;;;;;;;;5061181;28;20726;-65
2023/02/05 15:32:42;;;;;;;3.25;0.40;;;;;;;;;;5094952;28;20051;-65
2023/02/05 15:35:20;;;;;;;2.38;0.47;;;;;;;;;;5091402;28;20047;-65
2023/02/05 15:38:19;;;;;;;2.13;0.60;;;;;;;;;;5090299;28;20052;-64
2023/02/05 15:40:50;;;;;;;2.15;0.60;;;;;;;;;;4992501;28;20054;-68
2023/02/05 15:43:24;;;;;;;4.10;0.95;;;;;;;;;;4960185;28;20050;-65
2023/02/05 15:46:06;;;;;;;1.13;0.47;;;;;;;;;;4959998;28;20065;-64
2023/02/05 15:48:39;;;;;;;2.47;0.90;;;;;;;;;;4992531;28;20050;-65
2023/02/05 15:51:18;;;;;;;3.33;0.93;;;;;;;;;;4959958;28;20050;-64
2023/02/05 15:53:50;;;;;;;4.18;0.85;;;;;;;;;;4959699;28;20073;-65